sensor_id;sensor_type;location;lat;lon;timestamp;temperature;humidity
7117;DHT22;3600;48.568;7.870;2023-12-20T00:02:26;5.10;99.90
7117;DHT22;3600;48.568;7.870;2023-12-20T00:04:53;5.10;99.90
7117;DHT22;3600;48.568;7.870;2023-12-20T00:07:22;5.10;99.90
7117;DHT22;3600;48.568;7.870;2023-12-20T00:09:52;5.10;99.90
7117;DHT22;3600;48.568;7.870;2023-12-20T00:12:19;5.10;99.90
7117;DHT22;3600;48.568;7.870;2023-12-20T00:14:46;5.10;99.90
7117;DHT22;3600;48.568;7.870;2023-12-20T00:17:13;5.10;99.90
7117;DHT22;3600;48.568;7.870;2023-12-20T00:19:40;5.10;99.90
7117;DHT22;3600;48.568;7.870;2023-12-20T00:22:07;5.10;99.90
7117;DHT22;3600;48.568;7.870;2023-12-20T00:24:34;5.10;99.90
7117;DHT22;3600;48.568;7.870;2023-12-20T00:27:00;5.20;99.90
7117;DHT22;3600;48.568;7.870;2023-12-20T00:29:27;5.10;99.90
7117;DHT22;3600;48.568;7.870;2023-12-20T00:31:54;5.10;99.90
7117;DHT22;3600;48.568;7.870;2023-12-20T00:34:23;5.20;99.90
7117;DHT22;3600;48.568;7.870;2023-12-20T00:36:51;5.20;99.90
7117;DHT22;3600;48.568;7.870;2023-12-20T00:39:17;5.20;99.90
7117;DHT22;3600;48.568;7.870;2023-12-20T00:41:44;5.20;99.90
7117;DHT22;3600;48.568;7.870;2023-12-20T00:44:12;5.20;99.90
7117;DHT22;3600;48.568;7.870;2023-12-20T00:46:38;5.20;99.90
7117;DHT22;3600;48.568;7.870;2023-12-20T00:49:05;5.20;99.90
7117;DHT22;3600;48.568;7.870;2023-12-20T00:51:32;5.20;99.90
7117;DHT22;3600;48.568;7.870;2023-12-20T00:53:59;5.20;99.90
7117;DHT22;3600;48.568;7.870;2023-12-20T00:56:26;5.20;99.90
7117;DHT22;3600;48.568;7.870;2023-12-20T00:58:53;5.20;99.90
7117;DHT22;3600;48.568;7.870;2023-12-20T01:01:19;5.20;99.90
7117;DHT22;3600;48.568;7.870;2023-12-20T01:03:50;5.30;99.90
7117;DHT22;3600;48.568;7.870;2023-12-20T01:06:24;5.20;99.90
7117;DHT22;3600;48.568;7.870;2023-12-20T01:08:51;5.30;99.90
7117;DHT22;3600;48.568;7.870;2023-12-20T01:11:18;5.20;99.90
7117;DHT22;3600;48.568;7.870;2023-12-20T01:13:44;5.30;99.90
7117;DHT22;3600;48.568;7.870;2023-12-20T01:16:11;5.30;99.90
7117;DHT22;3600;48.568;7.870;2023-12-20T01:18:38;5.30;99.90
7117;DHT22;3600;48.568;7.870;2023-12-20T01:21:05;5.30;99.90
7117;DHT22;3600;48.568;7.870;2023-12-20T01:23:32;5.30;99.90
7117;DHT22;3600;48.568;7.870;2023-12-20T01:25:59;5.30;99.90
7117;DHT22;3600;48.568;7.870;2023-12-20T01:28:26;5.30;99.90
7117;DHT22;3600;48.568;7.870;2023-12-20T01:30:53;5.30;99.90
7117;DHT22;3600;48.568;7.870;2023-12-20T01:33:20;5.30;99.90
7117;DHT22;3600;48.568;7.870;2023-12-20T01:35:47;5.30;99.90
7117;DHT22;3600;48.568;7.870;2023-12-20T01:38:14;5.30;99.90
7117;DHT22;3600;48.568;7.870;2023-12-20T01:40:41;5.30;99.90
7117;DHT22;3600;48.568;7.870;2023-12-20T01:43:09;5.30;99.90
7117;DHT22;3600;48.568;7.870;2023-12-20T01:45:36;5.30;99.90
7117;DHT22;3600;48.568;7.870;2023-12-20T01:48:04;5.30;99.90
7117;DHT22;3600;48.568;7.870;2023-12-20T01:50:32;5.30;99.90
7117;DHT22;3600;48.568;7.870;2023-12-20T01:53:02;5.30;99.90
7117;DHT22;3600;48.568;7.870;2023-12-20T01:55:33;5.30;99.90
7117;DHT22;3600;48.568;7.870;2023-12-20T01:58:01;5.30;99.90
7117;DHT22;3600;48.568;7.870;2023-12-20T02:00:29;5.30;99.90
7117;DHT22;3600;48.568;7.870;2023-12-20T02:03:00;5.30;99.90
7117;DHT22;3600;48.568;7.870;2023-12-20T02:05:27;5.30;99.90
7117;DHT22;3600;48.568;7.870;2023-12-20T02:07:55;5.30;99.90
7117;DHT22;3600;48.568;7.870;2023-12-20T02:10:23;5.30;99.90
7117;DHT22;3600;48.568;7.870;2023-12-20T02:12:51;5.30;99.90
7117;DHT22;3600;48.568;7.870;2023-12-20T02:15:18;5.30;99.90
7117;DHT22;3600;48.568;7.870;2023-12-20T02:17:47;5.30;99.90
7117;DHT22;3600;48.568;7.870;2023-12-20T02:20:15;5.30;99.90
7117;DHT22;3600;48.568;7.870;2023-12-20T02:22:44;5.40;99.90
7117;DHT22;3600;48.568;7.870;2023-12-20T02:25:12;5.30;99.90
7117;DHT22;3600;48.568;7.870;2023-12-20T02:27:39;5.30;99.90
7117;DHT22;3600;48.568;7.870;2023-12-20T02:30:07;5.40;99.90
7117;DHT22;3600;48.568;7.870;2023-12-20T02:32:34;5.40;99.90
7117;DHT22;3600;48.568;7.870;2023-12-20T02:35:01;5.40;99.90
7117;DHT22;3600;48.568;7.870;2023-12-20T02:37:28;5.40;99.90
7117;DHT22;3600;48.568;7.870;2023-12-20T02:39:55;5.40;99.90
7117;DHT22;3600;48.568;7.870;2023-12-20T02:42:24;5.40;99.90
7117;DHT22;3600;48.568;7.870;2023-12-20T02:44:51;5.40;99.90
7117;DHT22;3600;48.568;7.870;2023-12-20T02:47:17;5.40;99.90
7117;DHT22;3600;48.568;7.870;2023-12-20T02:49:44;5.40;99.90
7117;DHT22;3600;48.568;7.870;2023-12-20T02:52:14;5.40;99.90
7117;DHT22;3600;48.568;7.870;2023-12-20T02:54:41;5.40;99.90
7117;DHT22;3600;48.568;7.870;2023-12-20T02:57:09;5.40;99.90
7117;DHT22;3600;48.568;7.870;2023-12-20T02:59:36;5.40;99.90
7117;DHT22;3600;48.568;7.870;2023-12-20T03:02:03;5.50;99.90
7117;DHT22;3600;48.568;7.870;2023-12-20T03:04:33;5.40;99.90
7117;DHT22;3600;48.568;7.870;2023-12-20T03:07:00;5.50;99.90
7117;DHT22;3600;48.568;7.870;2023-12-20T03:09:33;5.50;99.90
7117;DHT22;3600;48.568;7.870;2023-12-20T03:12:20;5.50;99.90
7117;DHT22;3600;48.568;7.870;2023-12-20T03:14:49;5.50;99.90
7117;DHT22;3600;48.568;7.870;2023-12-20T03:17:17;5.50;99.90
7117;DHT22;3600;48.568;7.870;2023-12-20T03:19:45;5.50;99.90
7117;DHT22;3600;48.568;7.870;2023-12-20T03:22:14;5.50;99.90
7117;DHT22;3600;48.568;7.870;2023-12-20T03:24:42;5.50;99.90
7117;DHT22;3600;48.568;7.870;2023-12-20T03:27:09;5.50;99.90
7117;DHT22;3600;48.568;7.870;2023-12-20T03:29:36;5.50;99.90
7117;DHT22;3600;48.568;7.870;2023-12-20T03:32:04;5.50;99.90
7117;DHT22;3600;48.568;7.870;2023-12-20T03:34:33;5.50;99.90
7117;DHT22;3600;48.568;7.870;2023-12-20T03:37:02;5.50;99.90
7117;DHT22;3600;48.568;7.870;2023-12-20T03:39:29;5.50;99.90
7117;DHT22;3600;48.568;7.870;2023-12-20T03:42:01;5.50;99.90
7117;DHT22;3600;48.568;7.870;2023-12-20T03:44:30;5.50;99.90
7117;DHT22;3600;48.568;7.870;2023-12-20T03:47:02;5.50;99.90
7117;DHT22;3600;48.568;7.870;2023-12-20T03:49:32;5.60;99.90
7117;DHT22;3600;48.568;7.870;2023-12-20T03:51:59;5.60;99.90
7117;DHT22;3600;48.568;7.870;2023-12-20T03:54:29;5.50;99.90
7117;DHT22;3600;48.568;7.870;2023-12-20T03:57:04;5.50;99.90
7117;DHT22;3600;48.568;7.870;2023-12-20T03:59:37;5.60;99.90
7117;DHT22;3600;48.568;7.870;2023-12-20T04:02:09;5.60;99.90
7117;DHT22;3600;48.568;7.870;2023-12-20T04:04:39;5.60;99.90
7117;DHT22;3600;48.568;7.870;2023-12-20T04:07:14;5.60;99.90
7117;DHT22;3600;48.568;7.870;2023-12-20T04:09:45;5.60;99.90
7117;DHT22;3600;48.568;7.870;2023-12-20T04:12:30;5.60;99.90
7117;DHT22;3600;48.568;7.870;2023-12-20T04:15:07;5.60;99.90
7117;DHT22;3600;48.568;7.870;2023-12-20T04:17:52;5.60;99.90
7117;DHT22;3600;48.568;7.870;2023-12-20T04:20:19;5.60;99.90
7117;DHT22;3600;48.568;7.870;2023-12-20T04:22:52;5.60;99.90
7117;DHT22;3600;48.568;7.870;2023-12-20T04:25:25;5.60;99.90
7117;DHT22;3600;48.568;7.870;2023-12-20T04:27:55;5.60;99.90
7117;DHT22;3600;48.568;7.870;2023-12-20T04:30:33;5.60;99.90
7117;DHT22;3600;48.568;7.870;2023-12-20T04:33:09;5.60;99.90
7117;DHT22;3600;48.568;7.870;2023-12-20T04:35:39;5.60;99.90
7117;DHT22;3600;48.568;7.870;2023-12-20T04:38:13;5.60;99.90
7117;DHT22;3600;48.568;7.870;2023-12-20T04:40:41;5.60;99.90
7117;DHT22;3600;48.568;7.870;2023-12-20T04:43:12;5.60;99.90
7117;DHT22;3600;48.568;7.870;2023-12-20T04:45:39;5.60;99.90
7117;DHT22;3600;48.568;7.870;2023-12-20T04:48:06;5.70;99.90
7117;DHT22;3600;48.568;7.870;2023-12-20T04:50:36;5.70;99.90
7117;DHT22;3600;48.568;7.870;2023-12-20T04:53:03;5.70;99.90
7117;DHT22;3600;48.568;7.870;2023-12-20T04:55:30;5.70;99.90
7117;DHT22;3600;48.568;7.870;2023-12-20T04:57:57;5.70;99.90
7117;DHT22;3600;48.568;7.870;2023-12-20T05:00:27;5.70;99.90
7117;DHT22;3600;48.568;7.870;2023-12-20T05:02:54;5.70;99.90
7117;DHT22;3600;48.568;7.870;2023-12-20T05:05:24;5.70;99.90
7117;DHT22;3600;48.568;7.870;2023-12-20T05:07:52;5.70;99.90
7117;DHT22;3600;48.568;7.870;2023-12-20T05:10:22;5.70;99.90
7117;DHT22;3600;48.568;7.870;2023-12-20T05:12:48;5.70;99.90
7117;DHT22;3600;48.568;7.870;2023-12-20T05:15:15;5.70;99.90
7117;DHT22;3600;48.568;7.870;2023-12-20T05:17:42;5.70;99.90
7117;DHT22;3600;48.568;7.870;2023-12-20T05:20:10;5.70;99.90
7117;DHT22;3600;48.568;7.870;2023-12-20T05:22:37;5.70;99.90
7117;DHT22;3600;48.568;7.870;2023-12-20T05:25:07;5.70;99.90
7117;DHT22;3600;48.568;7.870;2023-12-20T05:27:36;5.70;99.90
7117;DHT22;3600;48.568;7.870;2023-12-20T05:30:04;5.70;99.90
7117;DHT22;3600;48.568;7.870;2023-12-20T05:32:31;5.70;99.90
7117;DHT22;3600;48.568;7.870;2023-12-20T05:34:58;5.70;99.90
7117;DHT22;3600;48.568;7.870;2023-12-20T05:37:25;5.70;99.90
7117;DHT22;3600;48.568;7.870;2023-12-20T05:39:52;5.70;99.90
7117;DHT22;3600;48.568;7.870;2023-12-20T05:42:19;5.80;99.90
7117;DHT22;3600;48.568;7.870;2023-12-20T05:44:46;5.80;99.90
7117;DHT22;3600;48.568;7.870;2023-12-20T05:47:15;5.80;99.90
7117;DHT22;3600;48.568;7.870;2023-12-20T05:49:43;5.70;99.90
7117;DHT22;3600;48.568;7.870;2023-12-20T05:52:10;5.80;99.90
7117;DHT22;3600;48.568;7.870;2023-12-20T05:54:37;5.80;99.90
7117;DHT22;3600;48.568;7.870;2023-12-20T05:57:04;5.80;99.90
7117;DHT22;3600;48.568;7.870;2023-12-20T05:59:31;5.80;99.90
7117;DHT22;3600;48.568;7.870;2023-12-20T06:01:58;5.80;99.90
7117;DHT22;3600;48.568;7.870;2023-12-20T06:04:26;5.80;99.90
7117;DHT22;3600;48.568;7.870;2023-12-20T06:06:59;5.80;99.90
7117;DHT22;3600;48.568;7.870;2023-12-20T06:09:41;5.80;99.90
7117;DHT22;3600;48.568;7.870;2023-12-20T06:12:25;5.80;99.90
7117;DHT22;3600;48.568;7.870;2023-12-20T06:15:10;5.80;99.90
7117;DHT22;3600;48.568;7.870;2023-12-20T06:17:45;5.80;99.90
7117;DHT22;3600;48.568;7.870;2023-12-20T06:20:15;5.80;99.90
7117;DHT22;3600;48.568;7.870;2023-12-20T06:22:48;5.80;99.90
7117;DHT22;3600;48.568;7.870;2023-12-20T06:25:25;5.80;99.90
7117;DHT22;3600;48.568;7.870;2023-12-20T06:28:02;5.80;99.90
7117;DHT22;3600;48.568;7.870;2023-12-20T06:30:28;5.80;99.90
7117;DHT22;3600;48.568;7.870;2023-12-20T06:32:55;5.80;99.90
7117;DHT22;3600;48.568;7.870;2023-12-20T06:35:24;5.80;99.90
7117;DHT22;3600;48.568;7.870;2023-12-20T06:37:54;5.80;99.90
7117;DHT22;3600;48.568;7.870;2023-12-20T06:40:29;5.80;99.90
7117;DHT22;3600;48.568;7.870;2023-12-20T06:42:59;5.80;99.90
7117;DHT22;3600;48.568;7.870;2023-12-20T06:45:40;5.80;99.90
7117;DHT22;3600;48.568;7.870;2023-12-20T06:48:11;5.80;99.90
7117;DHT22;3600;48.568;7.870;2023-12-20T06:50:45;5.80;99.90
7117;DHT22;3600;48.568;7.870;2023-12-20T06:53:23;5.80;99.90
7117;DHT22;3600;48.568;7.870;2023-12-20T06:55:50;5.80;99.90
7117;DHT22;3600;48.568;7.870;2023-12-20T06:58:33;5.80;99.90
7117;DHT22;3600;48.568;7.870;2023-12-20T07:01:02;5.80;99.90
7117;DHT22;3600;48.568;7.870;2023-12-20T07:03:30;5.80;99.90
7117;DHT22;3600;48.568;7.870;2023-12-20T07:05:57;5.80;99.90
7117;DHT22;3600;48.568;7.870;2023-12-20T07:08:29;5.80;99.90
7117;DHT22;3600;48.568;7.870;2023-12-20T07:11:08;5.80;99.90
7117;DHT22;3600;48.568;7.870;2023-12-20T07:13:35;5.80;99.90
7117;DHT22;3600;48.568;7.870;2023-12-20T07:16:09;5.80;99.90
7117;DHT22;3600;48.568;7.870;2023-12-20T07:18:40;5.80;99.90
7117;DHT22;3600;48.568;7.870;2023-12-20T07:21:08;5.80;99.90
7117;DHT22;3600;48.568;7.870;2023-12-20T07:23:35;5.80;99.90
7117;DHT22;3600;48.568;7.870;2023-12-20T07:26:02;5.80;99.90
7117;DHT22;3600;48.568;7.870;2023-12-20T07:28:32;5.80;99.90
7117;DHT22;3600;48.568;7.870;2023-12-20T07:31:00;5.90;99.90
7117;DHT22;3600;48.568;7.870;2023-12-20T07:33:27;5.90;99.90
7117;DHT22;3600;48.568;7.870;2023-12-20T07:35:54;6.00;99.90
7117;DHT22;3600;48.568;7.870;2023-12-20T07:38:21;6.00;99.90
7117;DHT22;3600;48.568;7.870;2023-12-20T07:40:51;6.00;99.90
7117;DHT22;3600;48.568;7.870;2023-12-20T07:43:18;5.90;99.90
7117;DHT22;3600;48.568;7.870;2023-12-20T07:45:45;6.00;99.90
7117;DHT22;3600;48.568;7.870;2023-12-20T07:48:12;6.00;99.90
7117;DHT22;3600;48.568;7.870;2023-12-20T07:50:39;6.00;99.90
7117;DHT22;3600;48.568;7.870;2023-12-20T07:53:07;6.00;99.90
7117;DHT22;3600;48.568;7.870;2023-12-20T07:55:34;6.00;99.90
7117;DHT22;3600;48.568;7.870;2023-12-20T07:58:01;6.00;99.90
7117;DHT22;3600;48.568;7.870;2023-12-20T08:00:28;5.90;99.90
7117;DHT22;3600;48.568;7.870;2023-12-20T08:02:55;5.90;99.90
7117;DHT22;3600;48.568;7.870;2023-12-20T08:05:22;5.90;99.90
7117;DHT22;3600;48.568;7.870;2023-12-20T08:07:49;5.80;99.90
7117;DHT22;3600;48.568;7.870;2023-12-20T08:10:16;5.80;99.90
7117;DHT22;3600;48.568;7.870;2023-12-20T08:12:45;5.80;99.90
7117;DHT22;3600;48.568;7.870;2023-12-20T08:15:12;5.80;99.90
7117;DHT22;3600;48.568;7.870;2023-12-20T08:17:39;5.80;99.90
7117;DHT22;3600;48.568;7.870;2023-12-20T08:20:06;5.70;99.90
7117;DHT22;3600;48.568;7.870;2023-12-20T08:22:33;5.70;99.90
7117;DHT22;3600;48.568;7.870;2023-12-20T08:25:01;5.70;99.90
7117;DHT22;3600;48.568;7.870;2023-12-20T08:27:31;5.70;99.90
7117;DHT22;3600;48.568;7.870;2023-12-20T08:30:03;5.70;99.90
7117;DHT22;3600;48.568;7.870;2023-12-20T08:32:32;5.70;99.90
7117;DHT22;3600;48.568;7.870;2023-12-20T08:35:07;5.70;99.90
7117;DHT22;3600;48.568;7.870;2023-12-20T08:37:34;5.70;99.90
7117;DHT22;3600;48.568;7.870;2023-12-20T08:40:02;5.80;99.90
7117;DHT22;3600;48.568;7.870;2023-12-20T08:42:30;5.80;99.90
7117;DHT22;3600;48.568;7.870;2023-12-20T08:45:00;5.80;99.90
7117;DHT22;3600;48.568;7.870;2023-12-20T08:47:27;5.80;99.90
7117;DHT22;3600;48.568;7.870;2023-12-20T08:49:57;5.80;99.90
7117;DHT22;3600;48.568;7.870;2023-12-20T08:52:28;5.80;99.90
7117;DHT22;3600;48.568;7.870;2023-12-20T08:54:57;5.80;99.90
7117;DHT22;3600;48.568;7.870;2023-12-20T08:57:29;5.90;99.90
7117;DHT22;3600;48.568;7.870;2023-12-20T08:59:58;5.90;99.90
7117;DHT22;3600;48.568;7.870;2023-12-20T09:02:25;6.00;99.90
7117;DHT22;3600;48.568;7.870;2023-12-20T09:04:52;6.00;99.90
7117;DHT22;3600;48.568;7.870;2023-12-20T09:07:26;6.10;99.90
7117;DHT22;3600;48.568;7.870;2023-12-20T09:09:56;6.20;99.90
7117;DHT22;3600;48.568;7.870;2023-12-20T09:12:25;6.20;99.90
7117;DHT22;3600;48.568;7.870;2023-12-20T09:14:52;6.30;99.90
7117;DHT22;3600;48.568;7.870;2023-12-20T09:17:19;6.30;99.90
7117;DHT22;3600;48.568;7.870;2023-12-20T09:19:47;6.20;99.90
7117;DHT22;3600;48.568;7.870;2023-12-20T09:22:24;6.20;99.90
7117;DHT22;3600;48.568;7.870;2023-12-20T09:24:54;6.30;99.90
7117;DHT22;3600;48.568;7.870;2023-12-20T09:27:30;6.30;99.90
7117;DHT22;3600;48.568;7.870;2023-12-20T09:30:28;6.30;99.90
7117;DHT22;3600;48.568;7.870;2023-12-20T09:33:17;6.40;99.90
7117;DHT22;3600;48.568;7.870;2023-12-20T09:35:57;6.40;99.90
7117;DHT22;3600;48.568;7.870;2023-12-20T09:38:44;6.40;99.90
7117;DHT22;3600;48.568;7.870;2023-12-20T09:41:19;6.50;99.90
7117;DHT22;3600;48.568;7.870;2023-12-20T09:43:56;6.40;99.90
7117;DHT22;3600;48.568;7.870;2023-12-20T09:46:40;6.40;99.90
7117;DHT22;3600;48.568;7.870;2023-12-20T09:49:19;6.40;99.90
7117;DHT22;3600;48.568;7.870;2023-12-20T09:52:05;6.40;99.90
7117;DHT22;3600;48.568;7.870;2023-12-20T09:54:52;6.40;99.90
7117;DHT22;3600;48.568;7.870;2023-12-20T09:57:38;6.40;99.90
7117;DHT22;3600;48.568;7.870;2023-12-20T10:00:15;6.50;99.90
7117;DHT22;3600;48.568;7.870;2023-12-20T10:02:58;6.50;99.90
7117;DHT22;3600;48.568;7.870;2023-12-20T10:05:41;6.50;99.90
7117;DHT22;3600;48.568;7.870;2023-12-20T10:08:26;6.60;99.90
7117;DHT22;3600;48.568;7.870;2023-12-20T10:11:02;6.60;99.90
7117;DHT22;3600;48.568;7.870;2023-12-20T10:13:42;6.60;99.90
7117;DHT22;3600;48.568;7.870;2023-12-20T10:16:51;6.60;99.90
7117;DHT22;3600;48.568;7.870;2023-12-20T10:19:25;6.60;99.90
7117;DHT22;3600;48.568;7.870;2023-12-20T10:31:49;6.60;99.90
7117;DHT22;3600;48.568;7.870;2023-12-20T10:37:55;6.70;99.90
7117;DHT22;3600;48.568;7.870;2023-12-20T10:40:29;6.70;99.90
7117;DHT22;3600;48.568;7.870;2023-12-20T10:43:10;6.70;99.90
7117;DHT22;3600;48.568;7.870;2023-12-20T10:46:03;6.70;99.90
7117;DHT22;3600;48.568;7.870;2023-12-20T10:48:47;6.70;99.90
7117;DHT22;3600;48.568;7.870;2023-12-20T10:51:30;6.80;99.90
7117;DHT22;3600;48.568;7.870;2023-12-20T10:54:36;6.80;99.90
7117;DHT22;3600;48.568;7.870;2023-12-20T10:57:32;6.80;99.90
7117;DHT22;3600;48.568;7.870;2023-12-20T11:00:38;6.90;99.90
7117;DHT22;3600;48.568;7.870;2023-12-20T11:03:36;6.90;99.90
7117;DHT22;3600;48.568;7.870;2023-12-20T11:09:58;6.90;99.90
7117;DHT22;3600;48.568;7.870;2023-12-20T11:20:03;6.90;99.90
7117;DHT22;3600;48.568;7.870;2023-12-20T11:23:00;6.90;99.90
7117;DHT22;3600;48.568;7.870;2023-12-20T11:35:22;6.90;99.90
7117;DHT22;3600;48.568;7.870;2023-12-20T11:42:00;7.00;99.90
7117;DHT22;3600;48.568;7.870;2023-12-20T11:45:21;7.00;99.90
7117;DHT22;3600;48.568;7.870;2023-12-20T11:48:32;7.10;99.90
7117;DHT22;3600;48.568;7.870;2023-12-20T11:51:31;7.20;99.90
7117;DHT22;3600;48.568;7.870;2023-12-20T11:58:02;7.30;99.90
7117;DHT22;3600;48.568;7.870;2023-12-20T12:01:10;7.30;99.90
7117;DHT22;3600;48.568;7.870;2023-12-20T12:04:10;7.30;99.90
7117;DHT22;3600;48.568;7.870;2023-12-20T12:06:57;7.30;99.90
7117;DHT22;3600;48.568;7.870;2023-12-20T12:10:10;7.30;99.90
7117;DHT22;3600;48.568;7.870;2023-12-20T12:13:06;7.20;99.90
7117;DHT22;3600;48.568;7.870;2023-12-20T12:19:52;7.20;99.90
7117;DHT22;3600;48.568;7.870;2023-12-20T12:26:29;7.20;99.90
7117;DHT22;3600;48.568;7.870;2023-12-20T12:39:36;7.20;99.90
7117;DHT22;3600;48.568;7.870;2023-12-20T12:50:08;7.20;99.90
7117;DHT22;3600;48.568;7.870;2023-12-20T12:52:50;7.30;99.90
7117;DHT22;3600;48.568;7.870;2023-12-20T12:55:17;7.40;99.90
7117;DHT22;3600;48.568;7.870;2023-12-20T12:57:47;7.40;99.90
7117;DHT22;3600;48.568;7.870;2023-12-20T13:00:15;7.50;99.90
7117;DHT22;3600;48.568;7.870;2023-12-20T13:02:42;7.40;99.90
7117;DHT22;3600;48.568;7.870;2023-12-20T13:05:10;7.40;99.90
7117;DHT22;3600;48.568;7.870;2023-12-20T13:07:37;7.40;99.90
7117;DHT22;3600;48.568;7.870;2023-12-20T13:10:05;7.30;99.90
7117;DHT22;3600;48.568;7.870;2023-12-20T13:12:33;7.30;99.90
7117;DHT22;3600;48.568;7.870;2023-12-20T13:15:00;7.30;99.90
7117;DHT22;3600;48.568;7.870;2023-12-20T13:17:26;7.30;99.90
7117;DHT22;3600;48.568;7.870;2023-12-20T13:19:57;7.30;99.90
7117;DHT22;3600;48.568;7.870;2023-12-20T13:22:24;7.30;99.90
7117;DHT22;3600;48.568;7.870;2023-12-20T13:24:51;7.20;99.90
7117;DHT22;3600;48.568;7.870;2023-12-20T13:27:18;7.20;99.90
7117;DHT22;3600;48.568;7.870;2023-12-20T13:29:45;7.20;99.90
7117;DHT22;3600;48.568;7.870;2023-12-20T13:32:12;7.20;99.90
7117;DHT22;3600;48.568;7.870;2023-12-20T13:34:39;7.10;99.90
7117;DHT22;3600;48.568;7.870;2023-12-20T13:37:06;7.10;99.90
7117;DHT22;3600;48.568;7.870;2023-12-20T13:39:33;7.10;99.90
7117;DHT22;3600;48.568;7.870;2023-12-20T13:42:01;7.10;99.90
7117;DHT22;3600;48.568;7.870;2023-12-20T13:44:28;7.10;99.90
7117;DHT22;3600;48.568;7.870;2023-12-20T13:46:55;7.10;99.90
7117;DHT22;3600;48.568;7.870;2023-12-20T13:49:21;7.10;99.90
7117;DHT22;3600;48.568;7.870;2023-12-20T13:51:53;7.10;99.90
7117;DHT22;3600;48.568;7.870;2023-12-20T13:54:21;7.10;99.90
7117;DHT22;3600;48.568;7.870;2023-12-20T13:56:49;7.10;99.90
7117;DHT22;3600;48.568;7.870;2023-12-20T13:59:34;7.10;99.90
7117;DHT22;3600;48.568;7.870;2023-12-20T14:02:01;7.10;99.90
7117;DHT22;3600;48.568;7.870;2023-12-20T14:04:30;7.10;99.90
7117;DHT22;3600;48.568;7.870;2023-12-20T14:07:09;7.10;99.90
7117;DHT22;3600;48.568;7.870;2023-12-20T14:09:38;7.10;99.90
7117;DHT22;3600;48.568;7.870;2023-12-20T14:12:05;7.10;99.90
7117;DHT22;3600;48.568;7.870;2023-12-20T14:14:32;7.00;99.90
7117;DHT22;3600;48.568;7.870;2023-12-20T14:16:59;7.00;99.90
7117;DHT22;3600;48.568;7.870;2023-12-20T14:19:27;7.00;99.90
7117;DHT22;3600;48.568;7.870;2023-12-20T14:21:54;7.00;99.90
7117;DHT22;3600;48.568;7.870;2023-12-20T14:24:21;6.90;99.90
7117;DHT22;3600;48.568;7.870;2023-12-20T14:26:48;6.90;99.90
7117;DHT22;3600;48.568;7.870;2023-12-20T14:29:14;6.90;99.90
7117;DHT22;3600;48.568;7.870;2023-12-20T14:31:41;6.90;99.90
7117;DHT22;3600;48.568;7.870;2023-12-20T14:34:08;6.90;99.90
7117;DHT22;3600;48.568;7.870;2023-12-20T14:36:35;6.80;99.90
7117;DHT22;3600;48.568;7.870;2023-12-20T14:39:05;6.80;99.90
7117;DHT22;3600;48.568;7.870;2023-12-20T14:41:32;6.80;99.90
7117;DHT22;3600;48.568;7.870;2023-12-20T14:43:59;6.80;99.90
7117;DHT22;3600;48.568;7.870;2023-12-20T14:46:31;6.80;99.90
7117;DHT22;3600;48.568;7.870;2023-12-20T14:48:58;6.80;99.90
7117;DHT22;3600;48.568;7.870;2023-12-20T14:51:25;6.80;99.90
7117;DHT22;3600;48.568;7.870;2023-12-20T14:53:52;6.80;99.90
7117;DHT22;3600;48.568;7.870;2023-12-20T14:56:19;6.80;99.90
7117;DHT22;3600;48.568;7.870;2023-12-20T14:58:47;6.80;99.90
7117;DHT22;3600;48.568;7.870;2023-12-20T15:01:14;6.80;99.90
7117;DHT22;3600;48.568;7.870;2023-12-20T15:03:41;6.80;99.90
7117;DHT22;3600;48.568;7.870;2023-12-20T15:06:09;6.70;99.90
7117;DHT22;3600;48.568;7.870;2023-12-20T15:08:38;6.70;99.90
7117;DHT22;3600;48.568;7.870;2023-12-20T15:11:05;6.70;99.90
7117;DHT22;3600;48.568;7.870;2023-12-20T15:13:32;6.70;99.90
7117;DHT22;3600;48.568;7.870;2023-12-20T15:15:59;6.70;99.90
7117;DHT22;3600;48.568;7.870;2023-12-20T15:18:26;6.70;99.90
7117;DHT22;3600;48.568;7.870;2023-12-20T15:20:53;6.70;99.90
7117;DHT22;3600;48.568;7.870;2023-12-20T15:23:20;6.70;99.90
7117;DHT22;3600;48.568;7.870;2023-12-20T15:25:52;6.60;99.90
7117;DHT22;3600;48.568;7.870;2023-12-20T15:28:20;6.60;99.90
7117;DHT22;3600;48.568;7.870;2023-12-20T15:30:46;6.60;99.90
7117;DHT22;3600;48.568;7.870;2023-12-20T15:33:14;6.60;99.90
7117;DHT22;3600;48.568;7.870;2023-12-20T15:35:41;6.50;99.90
7117;DHT22;3600;48.568;7.870;2023-12-20T15:38:09;6.50;99.90
7117;DHT22;3600;48.568;7.870;2023-12-20T15:40:36;6.50;99.90
7117;DHT22;3600;48.568;7.870;2023-12-20T15:43:03;6.50;99.90
7117;DHT22;3600;48.568;7.870;2023-12-20T15:45:30;6.50;99.90
7117;DHT22;3600;48.568;7.870;2023-12-20T15:48:00;6.40;99.90
7117;DHT22;3600;48.568;7.870;2023-12-20T15:50:26;6.40;99.90
7117;DHT22;3600;48.568;7.870;2023-12-20T15:52:54;6.40;99.90
7117;DHT22;3600;48.568;7.870;2023-12-20T15:55:21;6.40;99.90
7117;DHT22;3600;48.568;7.870;2023-12-20T15:57:48;6.30;99.90
7117;DHT22;3600;48.568;7.870;2023-12-20T16:00:21;6.30;99.90
7117;DHT22;3600;48.568;7.870;2023-12-20T16:02:47;6.30;99.90
7117;DHT22;3600;48.568;7.870;2023-12-20T16:05:15;6.30;99.90
7117;DHT22;3600;48.568;7.870;2023-12-20T16:07:42;6.30;99.90
7117;DHT22;3600;48.568;7.870;2023-12-20T16:10:10;6.20;99.90
7117;DHT22;3600;48.568;7.870;2023-12-20T16:12:38;6.20;99.90
7117;DHT22;3600;48.568;7.870;2023-12-20T16:15:05;6.20;99.90
7117;DHT22;3600;48.568;7.870;2023-12-20T16:17:35;6.20;99.90
7117;DHT22;3600;48.568;7.870;2023-12-20T16:23:10;6.10;99.90
7117;DHT22;3600;48.568;7.870;2023-12-20T16:26:07;6.20;99.90
7117;DHT22;3600;48.568;7.870;2023-12-20T16:29:13;6.10;99.90
7117;DHT22;3600;48.568;7.870;2023-12-20T16:36:00;6.10;99.90
7117;DHT22;3600;48.568;7.870;2023-12-20T16:38:49;6.10;99.90
7117;DHT22;3600;48.568;7.870;2023-12-20T16:41:24;6.10;99.90
7117;DHT22;3600;48.568;7.870;2023-12-20T16:43:58;6.10;99.90
7117;DHT22;3600;48.568;7.870;2023-12-20T16:46:29;6.10;99.90
7117;DHT22;3600;48.568;7.870;2023-12-20T16:49:11;6.10;99.90
7117;DHT22;3600;48.568;7.870;2023-12-20T16:52:08;6.10;99.90
7117;DHT22;3600;48.568;7.870;2023-12-20T16:54:56;6.10;99.90
7117;DHT22;3600;48.568;7.870;2023-12-20T16:57:35;6.10;99.90
7117;DHT22;3600;48.568;7.870;2023-12-20T17:00:13;6.10;99.90
7117;DHT22;3600;48.568;7.870;2023-12-20T17:02:59;6.10;99.90
7117;DHT22;3600;48.568;7.870;2023-12-20T17:05:39;6.10;99.90
7117;DHT22;3600;48.568;7.870;2023-12-20T17:11:52;6.10;99.90
7117;DHT22;3600;48.568;7.870;2023-12-20T17:14:43;6.10;99.90
7117;DHT22;3600;48.568;7.870;2023-12-20T17:18:06;6.10;99.90
7117;DHT22;3600;48.568;7.870;2023-12-20T17:21:10;6.10;99.90
7117;DHT22;3600;48.568;7.870;2023-12-20T17:23:59;6.10;99.90
7117;DHT22;3600;48.568;7.870;2023-12-20T17:26:49;6.10;99.90
7117;DHT22;3600;48.568;7.870;2023-12-20T17:29:45;6.00;99.90
7117;DHT22;3600;48.568;7.870;2023-12-20T17:39:17;6.00;99.90
7117;DHT22;3600;48.568;7.870;2023-12-20T17:41:57;6.00;99.90
7117;DHT22;3600;48.568;7.870;2023-12-20T17:44:43;6.00;99.90
7117;DHT22;3600;48.568;7.870;2023-12-20T17:47:20;5.90;99.90
7117;DHT22;3600;48.568;7.870;2023-12-20T17:54:26;6.00;99.90
7117;DHT22;3600;48.568;7.870;2023-12-20T17:57:32;6.00;99.90
7117;DHT22;3600;48.568;7.870;2023-12-20T18:03:56;5.90;99.90
7117;DHT22;3600;48.568;7.870;2023-12-20T18:07:31;5.90;99.90
7117;DHT22;3600;48.568;7.870;2023-12-20T18:10:32;5.90;99.90
7117;DHT22;3600;48.568;7.870;2023-12-20T18:13:15;6.00;99.90
7117;DHT22;3600;48.568;7.870;2023-12-20T18:19:54;5.90;99.90
7117;DHT22;3600;48.568;7.870;2023-12-20T18:23:22;5.90;99.90
7117;DHT22;3600;48.568;7.870;2023-12-20T18:30:23;5.90;99.90
7117;DHT22;3600;48.568;7.870;2023-12-20T18:42:01;5.90;99.90
7117;DHT22;3600;48.568;7.870;2023-12-20T18:55:00;5.80;99.90
7117;DHT22;3600;48.568;7.870;2023-12-20T18:57:27;5.80;99.90